Holly, Michigan
Current Conditions -  °F | °C
As of 5:53 PM on Sunday 21 Dec 2014 (Local Time) from KFNT Reporting Station
Overcast Overcast  
Wind Chill: 28°   Ceiling: 5000
Heat Index: 33°   Visibility: 10mi
Dew Point: 23°   Wind: 6mph
Humidity: 66%   Direction: 150°SSE
Pressure: 30.21"   Gusts: NA
Location:  42.79°N, 83.63°W
Report Text: KFNT 212253Z 15005KT 10SM OVC050 01/M05 A3021 RMK AO2 SLP240 T00061050
Loading
Personal Weather Stations






























Interactive Weather Map New forecast layout! Learn more

10-Day Weather Forecast

Advertisements
Track Severe Weather on mobile